Time;durP1;ratioP1;P1;durP2;ratioP2;P2;SDS_P1;SDS_P2;PMS_P1;PMS_P2;Temp;Humidity;BMP_temperature;BMP_pressure;BME280_temperature;BME280_humidity;BME280_pressure;Samples;Min_cycle;Max_cycle;Signal;HPM_P1;HPM_P2
2021/12/06 00:00:25;;;;;;;39.07;20.03;;;1.80;99.90;;;;;;5092101;28;20556;-42
2021/12/06 00:02:53;;;;;;;35.33;18.97;;;1.80;99.90;;;;;;5097270;28;20200;-44
2021/12/06 00:05:20;;;;;;;31.73;18.40;;;1.80;99.90;;;;;;5096915;28;20206;-43
2021/12/06 00:07:47;;;;;;;30.57;17.70;;;1.80;99.90;;;;;;5099180;28;20216;-43
2021/12/06 00:10:15;;;;;;;32.80;19.10;;;1.90;99.90;;;;;;5099726;28;20720;-43
2021/12/06 00:12:43;;;;;;;34.07;18.67;;;1.80;99.90;;;;;;5100128;28;20200;-43
2021/12/06 00:15:11;;;;;;;34.20;19.10;;;1.80;99.90;;;;;;5103599;28;20193;-45
2021/12/06 00:17:39;;;;;;;34.30;19.87;;;1.80;99.90;;;;;;5078860;28;20228;-43
2021/12/06 00:20:09;;;;;;;33.33;18.60;;;1.80;99.90;;;;;;5103385;28;20197;-42
2021/12/06 00:22:36;;;;;;;35.70;20.43;;;1.70;99.90;;;;;;5101023;28;20204;-45
2021/12/06 00:25:03;;;;;;;31.83;20.17;;;1.70;99.90;;;;;;5086487;28;20198;-45
2021/12/06 00:27:30;;;;;;;35.27;19.87;;;1.70;99.90;;;;;;5092358;28;20181;-47
2021/12/06 00:29:57;;;;;;;35.47;19.37;;;1.70;99.90;;;;;;5101775;28;20318;-43
2021/12/06 00:32:24;;;;;;;36.07;20.80;;;1.70;99.90;;;;;;5087900;28;20201;-43
2021/12/06 00:34:52;;;;;;;36.47;20.43;;;1.70;99.90;;;;;;5092978;28;20197;-45
2021/12/06 00:37:22;;;;;;;35.30;19.97;;;1.70;99.90;;;;;;5103353;28;20200;-43
2021/12/06 00:39:51;;;;;;;36.17;19.33;;;1.70;99.90;;;;;;5095617;28;20229;-42
2021/12/06 00:42:21;;;;;;;31.40;18.80;;;1.70;99.90;;;;;;5102356;28;20692;-41
2021/12/06 00:44:48;;;;;;;31.93;19.90;;;1.80;99.90;;;;;;5095755;28;20205;-41
2021/12/06 00:47:15;;;;;;;31.60;18.53;;;1.80;99.90;;;;;;5087888;28;20216;-43
2021/12/06 00:49:44;;;;;;;38.60;19.37;;;1.80;99.90;;;;;;5099568;28;20209;-43
2021/12/06 00:52:13;;;;;;;31.23;18.50;;;1.70;99.90;;;;;;5101998;28;20239;-41
2021/12/06 00:54:40;;;;;;;30.83;17.90;;;1.80;99.90;;;;;;5095220;28;20668;-42
2021/12/06 00:57:09;;;;;;;30.97;18.17;;;1.80;99.90;;;;;;5101375;28;20201;-43
2021/12/06 00:59:37;;;;;;;36.30;19.57;;;1.80;99.90;;;;;;5098595;28;20209;-41
2021/12/06 01:02:05;;;;;;;38.30;18.63;;;1.80;99.90;;;;;;5087963;28;20209;-42
2021/12/06 01:04:36;;;;;;;30.03;17.37;;;1.80;99.90;;;;;;5088284;28;20314;-41
2021/12/06 01:07:05;;;;;;;29.63;18.30;;;1.80;99.90;;;;;;5095066;28;20205;-42
2021/12/06 01:09:33;;;;;;;31.73;18.43;;;1.80;99.90;;;;;;5094344;28;20678;-42
2021/12/06 01:12:00;;;;;;;32.23;17.93;;;1.80;99.90;;;;;;5099165;28;20201;-44
2021/12/06 01:14:27;;;;;;;28.83;18.93;;;1.80;99.90;;;;;;5101150;28;20270;-41
2021/12/06 01:16:54;;;;;;;28.97;17.97;;;1.80;99.90;;;;;;5098544;28;20873;-42
2021/12/06 01:19:27;;;;;;;28.07;17.60;;;1.70;99.90;;;;;;5086474;28;20258;-41
2021/12/06 01:22:06;;;;;;;29.83;17.87;;;1.70;99.90;;;;;;5098694;28;20283;-42
2021/12/06 01:24:41;;;;;;;30.43;18.27;;;1.70;99.90;;;;;;5086171;28;20696;-41
2021/12/06 01:27:26;;;;;;;33.30;19.13;;;1.70;99.90;;;;;;5097835;28;20211;-42
2021/12/06 01:30:17;;;;;;;32.53;18.37;;;1.70;99.90;;;;;;5102979;28;20213;-41
2021/12/06 01:33:04;;;;;;;27.80;17.50;;;1.70;99.90;;;;;;5101627;28;20196;-43
2021/12/06 01:41:19;;;;;;;33.13;18.70;;;1.70;99.90;;;;;;5020178;28;20198;-43
2021/12/06 01:44:06;;;;;;;33.40;17.53;;;1.70;99.90;;;;;;5017833;28;20442;-41
2021/12/06 01:46:36;;;;;;;29.00;17.60;;;1.70;99.90;;;;;;5079191;28;20201;-41
2021/12/06 01:49:03;;;;;;;33.10;18.63;;;1.70;99.90;;;;;;5091034;28;20235;-44
2021/12/06 01:51:30;;;;;;;31.90;18.20;;;1.80;99.90;;;;;;5093601;28;20215;-42
2021/12/06 01:53:57;;;;;;;33.57;17.97;;;1.80;99.90;;;;;;5103382;28;20280;-42
2021/12/06 01:56:26;;;;;;;31.90;18.43;;;1.70;99.90;;;;;;5104617;28;20208;-42
2021/12/06 01:58:54;;;;;;;33.57;18.73;;;1.70;99.90;;;;;;5098021;28;20221;-45
2021/12/06 02:01:22;;;;;;;30.97;18.57;;;1.80;99.90;;;;;;5104953;28;20196;-43
2021/12/06 02:03:49;;;;;;;34.53;18.63;;;1.80;99.90;;;;;;5094018;28;20217;-42
2021/12/06 02:06:17;;;;;;;33.13;18.67;;;1.80;99.90;;;;;;5090785;28;20229;-43
2021/12/06 02:08:44;;;;;;;31.70;18.40;;;1.80;99.90;;;;;;5095039;28;20325;-42
2021/12/06 02:11:11;;;;;;;29.03;17.60;;;1.80;99.90;;;;;;5106599;28;20228;-44
2021/12/06 02:13:46;;;;;;;35.17;19.63;;;1.80;99.90;;;;;;5097378;28;20673;-45
2021/12/06 02:16:14;;;;;;;31.93;17.00;;;1.80;99.90;;;;;;5101149;28;20215;-45
2021/12/06 02:18:46;;;;;;;33.13;19.03;;;1.80;99.90;;;;;;5102362;28;20295;-44
2021/12/06 02:21:18;;;;;;;29.93;17.77;;;1.80;99.90;;;;;;5083345;28;20266;-42
2021/12/06 02:23:46;;;;;;;28.47;17.10;;;1.80;99.90;;;;;;5087785;28;20206;-43
2021/12/06 02:26:13;;;;;;;30.27;17.60;;;1.80;99.90;;;;;;5105468;28;20199;-44
2021/12/06 02:28:40;;;;;;;27.00;16.93;;;1.80;99.90;;;;;;5099384;28;20744;-43
2021/12/06 02:31:07;;;;;;;27.63;17.13;;;1.80;99.90;;;;;;5103384;28;20579;-45
2021/12/06 02:33:34;;;;;;;32.40;18.33;;;1.70;99.90;;;;;;5104146;28;20231;-46
2021/12/06 02:36:01;;;;;;;26.33;15.87;;;1.60;99.90;;;;;;5089965;28;20850;-45
2021/12/06 02:38:30;;;;;;;32.00;17.23;;;1.60;99.90;;;;;;5102971;28;20239;-43
2021/12/06 02:40:58;;;;;;;28.93;17.20;;;1.60;99.90;;;;;;5098079;28;20393;-45
2021/12/06 02:43:26;;;;;;;25.13;15.20;;;1.60;99.90;;;;;;5102201;28;20607;-45
2021/12/06 02:45:53;;;;;;;26.60;15.23;;;1.50;99.90;;;;;;5091550;28;20205;-43
2021/12/06 02:48:20;;;;;;;26.87;16.53;;;1.50;99.90;;;;;;5104280;28;20247;-44
2021/12/06 02:50:50;;;;;;;25.63;16.17;;;1.40;99.90;;;;;;5088568;28;20863;-45
2021/12/06 02:53:17;;;;;;;28.30;15.73;;;1.30;99.90;;;;;;5087608;28;20669;-46
2021/12/06 02:55:51;;;;;;;24.33;15.17;;;1.30;99.90;;;;;;5097847;28;20850;-42
2021/12/06 02:58:44;;;;;;;28.00;15.20;;;1.20;99.90;;;;;;5104408;28;20232;-46
2021/12/06 03:01:13;;;;;;;23.37;14.27;;;1.20;99.90;;;;;;5099349;28;20199;-43
2021/12/06 03:03:40;;;;;;;30.40;15.93;;;1.30;99.90;;;;;;5101350;28;20200;-43
2021/12/06 03:06:09;;;;;;;28.63;15.63;;;1.30;99.90;;;;;;5103597;28;20291;-44
2021/12/06 03:08:39;;;;;;;30.97;16.13;;;1.20;99.90;;;;;;5082871;27;20447;-45
2021/12/06 03:11:10;;;;;;;30.17;16.90;;;1.20;99.90;;;;;;5103232;28;20225;-42
2021/12/06 03:13:37;;;;;;;27.07;15.43;;;1.20;99.90;;;;;;5102532;28;20682;-43
2021/12/06 03:16:05;;;;;;;25.10;14.27;;;1.20;99.90;;;;;;5098155;28;20201;-43
2021/12/06 03:18:32;;;;;;;26.60;15.53;;;1.20;99.90;;;;;;5101729;28;20221;-43
2021/12/06 03:21:00;;;;;;;26.50;15.87;;;1.10;99.90;;;;;;5101287;28;20803;-43
2021/12/06 03:23:27;;;;;;;26.17;16.00;;;1.10;99.90;;;;;;5081377;28;20326;-46
2021/12/06 03:25:54;;;;;;;23.97;15.23;;;1.10;99.90;;;;;;5088254;28;20200;-45
2021/12/06 03:28:22;;;;;;;27.43;16.27;;;1.00;99.90;;;;;;5105044;28;20217;-44
2021/12/06 03:30:49;;;;;;;27.63;15.30;;;1.00;99.90;;;;;;5092940;28;20220;-42
2021/12/06 03:33:16;;;;;;;24.67;14.83;;;1.00;99.90;;;;;;5098044;28;20289;-42
2021/12/06 03:35:43;;;;;;;28.57;17.17;;;0.90;99.90;;;;;;5104544;28;20575;-45
2021/12/06 03:38:11;;;;;;;28.77;15.77;;;0.90;99.90;;;;;;5086528;28;22519;-42
2021/12/06 03:40:38;;;;;;;25.03;15.23;;;0.90;99.90;;;;;;5100055;28;20189;-43
2021/12/06 03:43:05;;;;;;;23.53;14.47;;;0.90;99.90;;;;;;5093700;28;20208;-43
2021/12/06 03:45:35;;;;;;;27.37;15.40;;;0.90;99.90;;;;;;5102728;28;20250;-42
2021/12/06 03:48:02;;;;;;;31.97;16.30;;;0.90;99.90;;;;;;5095417;28;20775;-45
2021/12/06 03:50:30;;;;;;;26.53;14.93;;;1.00;99.90;;;;;;5101873;28;20211;-42
2021/12/06 03:52:58;;;;;;;26.60;16.57;;;0.90;99.90;;;;;;5100879;28;20690;-44
2021/12/06 03:55:24;;;;;;;26.83;15.77;;;0.90;99.90;;;;;;5086297;28;20417;-43
2021/12/06 03:57:52;;;;;;;24.27;14.57;;;0.90;99.90;;;;;;5091536;28;20255;-42
2021/12/06 04:00:20;;;;;;;25.20;14.37;;;0.90;99.90;;;;;;5100636;28;20807;-42
2021/12/06 04:02:55;;;;;;;28.37;14.90;;;0.80;99.90;;;;;;5095611;28;20212;-43
2021/12/06 04:05:23;;;;;;;24.83;14.93;;;0.80;99.90;;;;;;5099525;28;20887;-42
2021/12/06 04:07:50;;;;;;;26.90;15.33;;;0.80;99.90;;;;;;5102264;28;20256;-44
2021/12/06 04:10:17;;;;;;;26.00;14.87;;;0.80;99.90;;;;;;5088795;27;21126;-46
2021/12/06 04:12:44;;;;;;;30.57;15.57;;;0.70;99.90;;;;;;5099828;27;20207;-43
2021/12/06 04:15:13;;;;;;;25.83;14.93;;;0.70;99.90;;;;;;5097799;28;20898;-48
2021/12/06 04:17:41;;;;;;;24.87;14.90;;;0.60;99.90;;;;;;5102499;28;20215;-44
2021/12/06 04:20:12;;;;;;;24.63;14.87;;;0.50;99.90;;;;;;5095470;28;20195;-44
2021/12/06 04:22:40;;;;;;;25.67;15.23;;;0.50;99.90;;;;;;5096069;28;20208;-44
2021/12/06 04:25:09;;;;;;;25.83;15.10;;;0.50;99.90;;;;;;5098183;28;20232;-45
2021/12/06 04:27:37;;;;;;;24.03;14.70;;;0.50;99.90;;;;;;5085647;28;20209;-46
2021/12/06 04:30:09;;;;;;;25.63;15.57;;;0.50;99.90;;;;;;5091179;28;20212;-44
2021/12/06 04:32:36;;;;;;;23.07;14.63;;;0.50;99.90;;;;;;5102417;28;20215;-43
2021/12/06 04:35:04;;;;;;;29.47;15.67;;;0.60;99.90;;;;;;5094469;28;20208;-44
2021/12/06 04:37:32;;;;;;;23.63;15.43;;;0.50;99.90;;;;;;5101989;28;20609;-43
2021/12/06 04:40:00;;;;;;;26.00;14.20;;;0.50;99.90;;;;;;5100037;28;20211;-45
2021/12/06 04:42:27;;;;;;;25.27;14.30;;;0.50;99.90;;;;;;5088739;28;20293;-43
2021/12/06 04:44:54;;;;;;;24.13;14.97;;;0.50;99.90;;;;;;5094390;28;20219;-43
2021/12/06 04:47:22;;;;;;;27.57;15.50;;;0.50;99.90;;;;;;5094325;28;20193;-43
2021/12/06 04:49:49;;;;;;;24.57;15.10;;;0.50;99.90;;;;;;5101708;28;20304;-44
2021/12/06 04:52:18;;;;;;;26.27;14.80;;;0.50;99.90;;;;;;5094727;28;20192;-47
2021/12/06 04:54:52;;;;;;;25.50;15.10;;;0.60;99.90;;;;;;5102042;28;20287;-42
2021/12/06 04:57:23;;;;;;;21.87;13.23;;;0.60;99.90;;;;;;5086496;28;20723;-43
2021/12/06 04:59:53;;;;;;;24.43;14.17;;;0.70;99.90;;;;;;5090409;28;20199;-44
2021/12/06 05:02:24;;;;;;;22.27;12.93;;;0.70;99.90;;;;;;5099193;28;20203;-43
2021/12/06 05:04:56;;;;;;;24.20;12.80;;;0.80;99.90;;;;;;5101734;28;20598;-47
2021/12/06 05:07:28;;;;;;;22.63;12.90;;;0.80;99.90;;;;;;5100268;28;20200;-44
2021/12/06 05:09:57;;;;;;;20.50;12.53;;;0.80;99.90;;;;;;5104856;28;20212;-45
2021/12/06 05:12:28;;;;;;;20.90;13.23;;;0.80;99.90;;;;;;5092895;28;20330;-43
2021/12/06 05:14:56;;;;;;;21.73;13.07;;;0.80;99.90;;;;;;5100236;28;20283;-48
2021/12/06 05:17:24;;;;;;;24.60;13.00;;;0.80;99.90;;;;;;5101132;28;20281;-44
2021/12/06 05:19:52;;;;;;;18.23;12.87;;;0.90;99.90;;;;;;5105233;28;20203;-45
2021/12/06 05:22:19;;;;;;;20.43;12.33;;;0.90;99.90;;;;;;5096876;28;20301;-47
2021/12/06 05:24:46;;;;;;;21.00;12.77;;;0.90;99.90;;;;;;5105880;28;20210;-43
2021/12/06 05:27:15;;;;;;;19.90;13.17;;;0.90;99.90;;;;;;5101774;28;20379;-42
2021/12/06 05:29:50;;;;;;;22.27;12.93;;;0.90;99.90;;;;;;5090185;28;20206;-43
2021/12/06 05:32:18;;;;;;;25.27;13.90;;;0.90;99.90;;;;;;5097851;28;20841;-42
2021/12/06 05:34:46;;;;;;;21.83;13.13;;;0.90;99.90;;;;;;5100451;28;20234;-42
2021/12/06 05:37:15;;;;;;;19.63;12.50;;;0.90;99.90;;;;;;5097324;28;20205;-42
2021/12/06 05:39:42;;;;;;;20.93;13.13;;;0.90;99.90;;;;;;5107164;28;20201;-42
2021/12/06 05:42:11;;;;;;;21.60;12.90;;;0.90;99.90;;;;;;5101817;28;20200;-46
2021/12/06 05:44:41;;;;;;;22.23;12.97;;;0.90;99.90;;;;;;5089552;28;20736;-43
2021/12/06 05:47:08;;;;;;;16.70;12.37;;;0.90;99.90;;;;;;5103569;28;20625;-42
2021/12/06 05:49:36;;;;;;;24.63;13.60;;;1.00;99.90;;;;;;5095808;28;20212;-44
2021/12/06 05:52:04;;;;;;;20.03;11.60;;;1.00;99.90;;;;;;5102508;28;20722;-44
2021/12/06 05:54:31;;;;;;;20.67;12.13;;;1.00;99.90;;;;;;5102523;28;20188;-47
2021/12/06 05:56:58;;;;;;;22.67;12.33;;;1.00;99.90;;;;;;5106279;28;20205;-45
2021/12/06 05:59:25;;;;;;;18.17;11.73;;;0.90;99.90;;;;;;5089540;28;20213;-43
2021/12/06 06:01:54;;;;;;;20.47;13.07;;;0.90;99.90;;;;;;5100006;28;20204;-40
2021/12/06 06:04:21;;;;;;;17.97;11.67;;;1.00;99.90;;;;;;5097192;28;20238;-42
2021/12/06 06:06:49;;;;;;;19.83;11.77;;;1.00;99.90;;;;;;5098869;28;20309;-42
2021/12/06 06:09:16;;;;;;;22.60;12.27;;;1.00;99.90;;;;;;5105311;28;20699;-39
2021/12/06 06:11:43;;;;;;;21.23;11.57;;;1.00;99.90;;;;;;5101881;28;20282;-43
2021/12/06 06:14:09;;;;;;;20.83;12.07;;;0.90;99.90;;;;;;5105156;28;20205;-43
2021/12/06 06:16:46;;;;;;;16.30;11.40;;;1.00;99.90;;;;;;5086106;28;20209;-40
2021/12/06 06:19:15;;;;;;;17.90;11.07;;;1.00;99.90;;;;;;5105090;28;20605;-43
2021/12/06 06:21:42;;;;;;;17.70;11.23;;;1.00;99.90;;;;;;5096375;28;20189;-44
2021/12/06 06:24:09;;;;;;;20.10;10.80;;;1.00;99.90;;;;;;5099702;28;20211;-41
2021/12/06 06:26:35;;;;;;;17.93;11.73;;;1.00;99.90;;;;;;5101506;28;20298;-42
2021/12/06 06:29:02;;;;;;;20.50;11.27;;;1.00;99.90;;;;;;5103257;28;20212;-41
2021/12/06 06:31:29;;;;;;;19.30;10.87;;;1.00;99.90;;;;;;5082330;28;20220;-42
2021/12/06 06:33:56;;;;;;;16.77;10.80;;;1.00;99.90;;;;;;5080449;28;20217;-42
2021/12/06 06:36:24;;;;;;;16.87;10.77;;;1.00;99.90;;;;;;5103544;28;20200;-41
2021/12/06 06:38:51;;;;;;;19.10;11.13;;;1.00;99.90;;;;;;5095073;28;20231;-41
2021/12/06 06:41:18;;;;;;;18.20;10.63;;;1.00;99.90;;;;;;5102284;28;20289;-42
2021/12/06 06:43:45;;;;;;;16.33;10.63;;;1.00;99.90;;;;;;5103641;28;20205;-41
2021/12/06 06:46:11;;;;;;;18.33;10.60;;;1.10;99.90;;;;;;5081404;28;20558;-41
2021/12/06 06:48:38;;;;;;;15.23;9.90;;;1.00;99.90;;;;;;5098379;28;20239;-41
2021/12/06 06:51:05;;;;;;;13.73;10.03;;;1.00;99.90;;;;;;5094539;28;20228;-43
2021/12/06 06:53:33;;;;;;;15.80;9.83;;;1.00;99.90;;;;;;5102695;28;20200;-42
2021/12/06 06:56:00;;;;;;;15.50;9.10;;;1.00;99.90;;;;;;5094743;28;20207;-44
2021/12/06 06:58:26;;;;;;;15.70;9.47;;;1.00;99.90;;;;;;5105503;28;20235;-40
2021/12/06 07:00:53;;;;;;;13.83;9.70;;;1.00;99.90;;;;;;5083228;28;20209;-42
2021/12/06 07:03:20;;;;;;;13.93;9.47;;;1.00;99.90;;;;;;5094616;28;20200;-41
2021/12/06 07:05:46;;;;;;;13.23;8.80;;;1.00;99.90;;;;;;5098140;28;20651;-41
2021/12/06 07:08:13;;;;;;;16.53;8.80;;;1.00;99.90;;;;;;5095263;28;20220;-40
2021/12/06 07:10:41;;;;;;;17.50;9.77;;;1.00;99.90;;;;;;5096331;28;20220;-43
2021/12/06 07:13:11;;;;;;;24.63;14.20;;;0.90;99.90;;;;;;5098515;28;20303;-45
2021/12/06 07:15:38;;;;;;;21.27;13.27;;;0.90;99.90;;;;;;5089558;28;20481;-42
2021/12/06 07:18:06;;;;;;;12.60;8.97;;;1.00;99.90;;;;;;5100027;27;20240;-39
2021/12/06 07:20:33;;;;;;;14.83;9.67;;;0.90;99.90;;;;;;5090320;28;20196;-40
2021/12/06 07:23:00;;;;;;;13.90;8.83;;;0.90;99.90;;;;;;5103401;28;20192;-41
2021/12/06 07:25:28;;;;;;;18.23;9.03;;;0.90;99.90;;;;;;5091492;28;20204;-42
2021/12/06 07:27:56;;;;;;;14.13;9.10;;;0.80;99.90;;;;;;5097504;28;20217;-44
2021/12/06 07:30:23;;;;;;;11.57;8.30;;;0.80;99.90;;;;;;5095393;28;20204;-44
2021/12/06 07:32:52;;;;;;;15.73;9.17;;;0.80;99.90;;;;;;5087370;28;20217;-40
2021/12/06 07:35:19;;;;;;;13.10;8.93;;;0.90;99.90;;;;;;5089188;28;20287;-43
2021/12/06 07:37:46;;;;;;;11.43;8.00;;;0.90;99.90;;;;;;5098138;28;20233;-40
2021/12/06 07:40:14;;;;;;;14.23;8.63;;;0.90;99.90;;;;;;5101212;28;20201;-43
2021/12/06 07:42:41;;;;;;;11.67;8.37;;;0.90;99.90;;;;;;5098475;28;20298;-40
2021/12/06 07:45:12;;;;;;;11.60;8.73;;;0.90;99.90;;;;;;5099902;28;20627;-41
2021/12/06 07:47:39;;;;;;;14.47;8.57;;;0.90;99.90;;;;;;5082301;28;20934;-40
2021/12/06 07:50:09;;;;;;;13.33;9.17;;;0.90;99.90;;;;;;5091730;28;20292;-41
2021/12/06 07:52:36;;;;;;;14.77;9.60;;;0.90;99.90;;;;;;5080594;28;20220;-40
2021/12/06 07:55:04;;;;;;;15.33;8.23;;;0.90;99.90;;;;;;5098234;28;20270;-41
2021/12/06 07:57:31;;;;;;;14.23;8.63;;;0.90;99.90;;;;;;5081443;28;20292;-40
2021/12/06 07:59:58;;;;;;;12.30;8.50;;;0.90;99.90;;;;;;5100111;28;20205;-41
2021/12/06 08:02:26;;;;;;;11.30;8.47;;;0.90;99.90;;;;;;5085444;28;20209;-42
2021/12/06 08:05:04;;;;;;;10.83;7.97;;;0.90;99.90;;;;;;5102902;28;20196;-40
2021/12/06 08:07:30;;;;;;;14.20;7.83;;;0.90;99.90;;;;;;5089541;28;20219;-41
2021/12/06 08:09:57;;;;;;;11.90;8.43;;;0.90;99.90;;;;;;5104203;28;20203;-44
2021/12/06 08:12:24;;;;;;;10.63;8.00;;;0.90;99.90;;;;;;5094543;28;20224;-39
2021/12/06 08:14:51;;;;;;;13.13;7.87;;;0.90;99.90;;;;;;5098217;28;20197;-42
2021/12/06 08:17:19;;;;;;;13.97;8.47;;;0.90;99.90;;;;;;5097015;28;20189;-40
2021/12/06 08:19:47;;;;;;;12.33;8.70;;;0.90;99.90;;;;;;5090512;28;20747;-40
2021/12/06 08:22:14;;;;;;;13.13;8.20;;;0.90;99.90;;;;;;5096817;28;20208;-41
2021/12/06 08:24:41;;;;;;;12.90;8.47;;;0.90;99.90;;;;;;5098270;28;20197;-41
2021/12/06 08:27:07;;;;;;;13.23;7.47;;;1.00;99.90;;;;;;5100918;28;20205;-40
2021/12/06 08:29:34;;;;;;;12.67;8.07;;;1.00;99.90;;;;;;5096957;28;20891;-40
2021/12/06 08:32:01;;;;;;;12.37;8.53;;;1.00;99.90;;;;;;5103479;28;20223;-41
2021/12/06 08:34:29;;;;;;;13.57;8.23;;;1.00;99.90;;;;;;5085037;28;20255;-40
2021/12/06 08:36:57;;;;;;;12.27;7.80;;;1.00;99.90;;;;;;5100931;28;20204;-41
2021/12/06 08:39:23;;;;;;;15.63;8.37;;;1.00;99.90;;;;;;5088755;28;20256;-44
2021/12/06 08:41:50;;;;;;;14.63;9.20;;;1.00;99.90;;;;;;5103136;28;20200;-40
2021/12/06 08:44:17;;;;;;;14.17;8.43;;;1.00;99.90;;;;;;5094736;28;20201;-39
2021/12/06 08:46:45;;;;;;;10.47;7.27;;;1.10;99.90;;;;;;5102058;28;20208;-39
2021/12/06 08:49:13;;;;;;;13.20;8.10;;;1.10;99.90;;;;;;5100939;28;20216;-44
2021/12/06 08:51:43;;;;;;;12.00;8.50;;;1.10;99.90;;;;;;5078065;28;20305;-40
2021/12/06 08:54:14;;;;;;;11.00;7.87;;;1.10;99.90;;;;;;5094522;28;20296;-40
2021/12/06 08:56:41;;;;;;;14.60;8.70;;;1.20;99.90;;;;;;5098767;28;20204;-40
2021/12/06 08:59:08;;;;;;;12.07;8.43;;;1.20;99.90;;;;;;5098060;28;20220;-39
2021/12/06 09:01:36;;;;;;;13.57;8.40;;;1.20;99.90;;;;;;5097007;28;20218;-40
2021/12/06 09:04:03;;;;;;;11.83;7.47;;;1.20;99.90;;;;;;5100030;28;20209;-40
2021/12/06 09:06:30;;;;;;;10.23;7.13;;;1.30;99.90;;;;;;5086140;28;20204;-41
2021/12/06 09:08:57;;;;;;;11.10;7.43;;;1.30;99.90;;;;;;5095794;28;20848;-40
2021/12/06 09:11:25;;;;;;;10.70;7.87;;;1.30;99.90;;;;;;5094541;28;20885;-40
2021/12/06 09:13:52;;;;;;;10.53;7.13;;;1.30;99.90;;;;;;5096536;28;20557;-41
2021/12/06 09:16:19;;;;;;;14.60;8.60;;;1.30;99.90;;;;;;5092943;28;20201;-40
2021/12/06 09:18:46;;;;;;;12.80;7.33;;;1.40;99.90;;;;;;5098441;28;20221;-40
2021/12/06 09:21:15;;;;;;;10.67;7.63;;;1.40;99.90;;;;;;5092561;28;20599;-42
2021/12/06 09:23:43;;;;;;;10.97;7.73;;;1.40;99.90;;;;;;5090367;28;20661;-42
2021/12/06 09:26:09;;;;;;;9.97;6.63;;;1.40;99.90;;;;;;5092347;28;20215;-40
2021/12/06 09:28:38;;;;;;;10.33;7.30;;;1.40;99.90;;;;;;5100679;28;20211;-40
2021/12/06 09:31:06;;;;;;;9.20;6.97;;;1.40;99.90;;;;;;5097216;28;20198;-40
2021/12/06 09:33:34;;;;;;;10.63;7.37;;;1.40;99.90;;;;;;5100334;28;20272;-47
2021/12/06 09:36:01;;;;;;;10.67;7.43;;;1.40;99.90;;;;;;5096629;28;20199;-43
2021/12/06 09:38:35;;;;;;;11.93;8.00;;;1.50;99.90;;;;;;5082516;28;20215;-43
2021/12/06 09:41:03;;;;;;;10.13;7.23;;;1.50;99.90;;;;;;5093525;28;20208;-40
2021/12/06 09:43:30;;;;;;;11.27;8.27;;;1.50;99.90;;;;;;5095587;28;20362;-42
2021/12/06 09:45:58;;;;;;;12.27;8.50;;;1.50;99.90;;;;;;5087506;28;20204;-40
2021/12/06 09:48:25;;;;;;;12.87;8.20;;;1.60;99.90;;;;;;5089431;28;20220;-40
2021/12/06 09:50:55;;;;;;;10.40;7.67;;;1.60;99.90;;;;;;5105644;28;20786;-39
2021/12/06 09:53:25;;;;;;;13.83;8.13;;;1.70;99.90;;;;;;5084519;28;20244;-42
2021/12/06 09:55:55;;;;;;;11.03;8.50;;;1.70;99.90;;;;;;5102630;28;20268;-40
2021/12/06 09:58:23;;;;;;;12.83;7.60;;;1.70;99.90;;;;;;5096574;27;20942;-42
2021/12/06 10:00:53;;;;;;;11.87;8.50;;;1.70;99.90;;;;;;5104547;28;20208;-40
2021/12/06 10:03:25;;;;;;;11.13;7.73;;;1.80;99.90;;;;;;5091459;28;20221;-39
2021/12/06 10:05:52;;;;;;;12.03;8.17;;;1.80;99.90;;;;;;5100739;28;20201;-43
2021/12/06 10:08:20;;;;;;;13.37;8.33;;;1.80;99.90;;;;;;5087900;28;20221;-40
2021/12/06 10:10:47;;;;;;;11.53;8.23;;;1.80;99.90;;;;;;5100184;28;20212;-43
2021/12/06 10:13:16;;;;;;;10.47;7.83;;;1.90;99.90;;;;;;5096751;28;20227;-44
2021/12/06 10:15:43;;;;;;;11.67;8.17;;;1.90;99.90;;;;;;5101900;28;20818;-42
2021/12/06 10:18:16;;;;;;;13.17;7.93;;;1.90;99.90;;;;;;5096276;28;20225;-41
2021/12/06 10:20:45;;;;;;;10.47;7.93;;;1.90;99.90;;;;;;5101740;28;20194;-39
2021/12/06 10:23:12;;;;;;;12.63;8.83;;;1.90;99.90;;;;;;5101147;28;20208;-41
2021/12/06 10:25:42;;;;;;;13.70;9.87;;;1.90;99.90;;;;;;5085964;28;20901;-40
2021/12/06 10:28:10;;;;;;;14.23;9.20;;;1.90;99.90;;;;;;5094718;28;20221;-44
2021/12/06 10:30:40;;;;;;;14.70;9.60;;;2.00;99.90;;;;;;5102775;28;20197;-40
2021/12/06 10:33:09;;;;;;;14.33;9.47;;;2.00;99.90;;;;;;5097748;28;20592;-41
2021/12/06 10:35:40;;;;;;;14.97;8.80;;;2.00;99.90;;;;;;5101982;28;20721;-39
2021/12/06 10:38:09;;;;;;;15.63;9.17;;;2.00;99.90;;;;;;5098499;28;20590;-39
2021/12/06 10:40:38;;;;;;;16.00;8.93;;;2.00;99.90;;;;;;5088839;28;20188;-39
2021/12/06 10:43:06;;;;;;;14.17;9.67;;;2.00;99.90;;;;;;5098489;28;20653;-41
2021/12/06 10:45:37;;;;;;;13.20;9.20;;;1.90;99.90;;;;;;5100150;28;20201;-39
2021/12/06 10:48:11;;;;;;;15.60;9.67;;;2.00;99.90;;;;;;5098974;28;20221;-40
2021/12/06 10:50:39;;;;;;;17.43;9.70;;;1.90;99.90;;;;;;5100282;28;20197;-39
2021/12/06 10:53:08;;;;;;;17.27;10.00;;;1.90;99.90;;;;;;5097858;28;20701;-39
2021/12/06 10:55:36;;;;;;;11.70;8.27;;;1.90;99.90;;;;;;5087820;28;20201;-40
2021/12/06 10:58:05;;;;;;;15.97;10.07;;;1.90;99.90;;;;;;5097526;28;20225;-45
2021/12/06 11:00:37;;;;;;;16.67;10.37;;;1.90;99.90;;;;;;5099271;28;20197;-42
2021/12/06 11:03:05;;;;;;;17.03;10.43;;;1.90;99.90;;;;;;5095546;28;20198;-46
2021/12/06 11:05:37;;;;;;;15.50;10.57;;;1.90;99.90;;;;;;5094377;28;20224;-42
2021/12/06 11:08:15;;;;;;;17.80;10.27;;;1.90;99.90;;;;;;5101250;28;20213;-43
2021/12/06 11:10:46;;;;;;;16.73;11.27;;;1.90;99.90;;;;;;5103736;28;20188;-44
2021/12/06 11:13:20;;;;;;;15.97;11.23;;;1.90;99.90;;;;;;5086813;28;20225;-43
2021/12/06 11:16:04;;;;;;;16.43;11.07;;;1.80;99.90;;;;;;5101781;28;20200;-42
2021/12/06 11:18:44;;;;;;;20.77;12.67;;;1.90;99.90;;;;;;5089084;28;20314;-42
2021/12/06 11:21:27;;;;;;;15.23;10.73;;;1.90;99.90;;;;;;5102897;28;20205;-47
2021/12/06 11:24:14;;;;;;;17.17;10.97;;;1.90;99.90;;;;;;5104622;28;20263;-42
2021/12/06 11:26:43;;;;;;;20.67;11.73;;;1.90;99.90;;;;;;5098100;28;20204;-44
2021/12/06 11:29:14;;;;;;;18.43;12.57;;;1.90;99.90;;;;;;5084103;28;20955;-44
2021/12/06 11:31:44;;;;;;;19.10;10.93;;;2.00;99.90;;;;;;5095825;28;21002;-42
2021/12/06 11:34:10;;;;;;;20.50;11.67;;;1.90;99.90;;;;;;5095022;28;20787;-44
2021/12/06 11:36:41;;;;;;;17.13;11.13;;;1.90;99.90;;;;;;5095038;28;20202;-45
2021/12/06 11:39:12;;;;;;;18.43;12.13;;;1.90;99.90;;;;;;5100680;28;20216;-42
2021/12/06 11:41:43;;;;;;;21.53;12.10;;;1.90;99.90;;;;;;5098382;28;20205;-42
2021/12/06 11:44:17;;;;;;;23.17;12.43;;;1.90;99.90;;;;;;5082574;28;20253;-42
2021/12/06 11:46:45;;;;;;;21.03;12.23;;;1.90;99.90;;;;;;5091505;28;20189;-46
2021/12/06 11:49:26;;;;;;;19.90;12.70;;;1.90;99.90;;;;;;5083146;28;20261;-45
2021/12/06 11:51:53;;;;;;;20.07;13.00;;;1.90;99.90;;;;;;5096362;28;20274;-47
2021/12/06 11:54:22;;;;;;;21.13;13.13;;;1.90;99.90;;;;;;5093779;28;20204;-45
2021/12/06 11:56:51;;;;;;;19.57;12.10;;;1.90;99.90;;;;;;5096795;28;20244;-47
2021/12/06 11:59:20;;;;;;;19.77;12.20;;;1.90;99.90;;;;;;5082337;27;20217;-48
2021/12/06 12:01:51;;;;;;;18.90;12.00;;;1.80;99.90;;;;;;5100554;28;20304;-46
2021/12/06 12:04:22;;;;;;;18.00;11.87;;;1.80;99.90;;;;;;5091882;28;20298;-48
2021/12/06 12:06:51;;;;;;;20.17;12.10;;;1.80;99.90;;;;;;5098354;28;20205;-43
2021/12/06 12:09:24;;;;;;;19.87;12.57;;;1.80;99.90;;;;;;5090216;27;20224;-45
2021/12/06 12:11:59;;;;;;;15.00;10.30;;;1.70;99.90;;;;;;5086612;28;20200;-45
2021/12/06 12:14:27;;;;;;;19.73;12.20;;;1.70;99.90;;;;;;5085915;27;20284;-45
2021/12/06 12:16:54;;;;;;;18.37;11.50;;;1.70;99.90;;;;;;5090115;28;20202;-45
2021/12/06 12:19:21;;;;;;;21.97;12.20;;;1.80;99.90;;;;;;5101757;28;20229;-45
2021/12/06 12:21:48;;;;;;;17.50;11.33;;;1.80;99.90;;;;;;5100036;28;20215;-44
2021/12/06 12:24:15;;;;;;;19.10;12.13;;;1.70;99.90;;;;;;5091948;28;20777;-45
2021/12/06 12:26:54;;;;;;;21.03;12.27;;;1.60;99.90;;;;;;5094857;28;20205;-43
2021/12/06 12:29:26;;;;;;;21.80;12.53;;;1.60;99.90;;;;;;5079419;28;20234;-43
2021/12/06 12:31:56;;;;;;;22.47;12.60;;;1.60;99.90;;;;;;5113377;27;20268;-43
2021/12/06 12:34:27;;;;;;;22.40;13.80;;;1.60;99.90;;;;;;5093142;28;20201;-42
2021/12/06 12:36:54;;;;;;;25.43;13.53;;;1.60;99.90;;;;;;5099990;28;20201;-44
2021/12/06 12:39:22;;;;;;;20.90;13.37;;;1.60;99.90;;;;;;5091907;28;20223;-42
2021/12/06 12:41:54;;;;;;;23.40;13.53;;;1.70;99.90;;;;;;5096564;28;20219;-43
2021/12/06 12:44:21;;;;;;;21.73;13.27;;;1.70;99.90;;;;;;5086774;28;20208;-46
2021/12/06 12:46:53;;;;;;;23.37;13.93;;;1.70;99.90;;;;;;5080907;28;20730;-50
2021/12/06 12:49:23;;;;;;;22.60;13.17;;;1.70;99.90;;;;;;5092313;28;20300;-46
2021/12/06 12:51:53;;;;;;;24.07;14.33;;;1.70;99.90;;;;;;5090021;28;20231;-43
2021/12/06 12:54:24;;;;;;;23.73;14.53;;;1.70;99.90;;;;;;5098117;28;20212;-43